Strona główna
METAR-TAF:

METAR-TAF

Lotnisko :

Coatesville, Pensylwania, Stany Zjednoczone

Szerokość geograficzna: 39-58-44N, Długość geograficzna: 075-51-56W, wysokość: 201 m

Aktualna obserwacja pogody

Raport powstał 16 minut temu, godzina 21:55 UTC
Wiatr 5 kt od południowy wschód
Temperatura 3°C
Wilgotność 70%
Ciśnienie 1029 hPa
Widzialność: 16.1 km
bezchmurnie

METAR: KMQS 082155Z AUTO 14005KT 10SM CLR 03/M02 A3039 RMK AO2

czas: 17:11 (22:11 UTC)


TAF: brakujący

Obserwacja i prognoza pogody dla ponad 4000 lotnisk (raport METAR i TAF).

Dostępne stacje oznaczono żółtymi i czerwonymi punktami na mapie.

Najedź kursorem aby zobaczyć nazwę stacji.

Kliknij aby zobaczyć obserwacje i prognozy pogody.

Aby zmienić mapę: kliknij na zielony przycisk z czarnym krzyżykiem, aby powiększyć; na zielony przycisk z myślnikiem, aby pomniejszyć; na zielone strzałki, aby przejść do map sąsiednich.


METAR-TAF: